Time;durP1;ratioP1;P1;durP2;ratioP2;P2;SDS_P1;SDS_P2;PMS_P1;PMS_P2;Temp;Humidity;BMP_temperature;BMP_pressure;BME280_temperature;BME280_humidity;BME280_pressure;Samples;Min_cycle;Max_cycle;Signal;HPM_P1;HPM_P2
2021/01/31 05:00:12;;;;;;;;;;;22.00;53.70;;;;;;5934435;23;20020;31
2021/01/31 05:02:45;;;;;;;2.20;1.00;;;22.00;53.70;;;;;;4843527;29;19931;-51
2021/01/31 05:05:25;;;;;;;2.00;1.08;;;22.00;53.60;;;;;;4844936;29;20061;-48
2021/01/31 05:07:56;;;;;;;5.10;1.27;;;22.00;53.60;;;;;;4826911;29;20030;-50
2021/01/31 05:10:23;;;;;;;1.88;0.90;;;22.00;53.50;;;;;;4840782;29;20066;-51
2021/01/31 05:12:58;;;;;;;1.58;0.98;;;22.00;53.40;;;;;;4826862;29;20179;-47
2021/01/31 05:15:45;;;;;;;1.02;0.90;;;22.10;53.40;;;;;;4826930;29;20038;-51
2021/01/31 05:18:14;;;;;;;1.10;1.00;;;22.10;53.30;;;;;;4845063;29;20056;-52
2021/01/31 05:20:42;;;;;;;2.33;1.10;;;22.00;53.20;;;;;;4843872;29;20087;-51
2021/01/31 05:23:08;;;;;;;0.80;0.80;;;22.10;53.30;;;;;;4844874;29;20119;-49
2021/01/31 05:25:37;;;;;;;1.27;1.17;;;22.10;53.30;;;;;;4845096;29;20115;-52
2021/01/31 05:28:05;;;;;;;1.40;1.10;;;22.10;53.30;;;;;;4844949;29;20054;-48
2021/01/31 05:30:42;;;;;;;1.90;0.90;;;22.10;53.30;;;;;;4844942;29;20041;-49
2021/01/31 05:33:11;;;;;;;2.63;0.90;;;22.10;53.30;;;;;;4844828;29;20026;-51
2021/01/31 05:35:41;;;;;;;1.80;1.08;;;22.10;53.40;;;;;;4844948;29;20040;-51
2021/01/31 05:38:07;;;;;;;1.38;1.05;;;22.10;53.40;;;;;;4844588;29;20121;-51
2021/01/31 05:40:44;;;;;;;1.20;1.10;;;22.10;53.50;;;;;;4844681;29;20113;-51
2021/01/31 05:43:17;;;;;;;1.90;1.10;;;22.10;53.70;;;;;;4844779;29;20495;-51
2021/01/31 05:45:44;;;;;;;1.90;1.00;;;22.10;53.60;;;;;;4844634;29;20094;-50
2021/01/31 05:48:30;;;;;;;2.38;0.98;;;22.10;53.60;;;;;;4844623;29;20038;-48
2021/01/31 05:50:56;;;;;;;4.00;1.08;;;22.10;53.60;;;;;;4844734;29;20166;-51
2021/01/31 05:53:35;;;;;;;2.83;1.10;;;22.10;53.60;;;;;;4844287;29;20038;-49
2021/01/31 05:56:25;;;;;;;0.90;0.73;;;22.10;53.70;;;;;;4844243;29;20090;-51
2021/01/31 05:59:06;;;;;;;1.88;1.08;;;22.00;53.50;;;;;;4843899;29;20026;-48
2021/01/31 06:01:32;;;;;;;1.50;0.90;;;22.00;53.60;;;;;;4843686;29;20045;-48
2021/01/31 06:04:13;;;;;;;1.38;0.90;;;22.00;53.40;;;;;;4844386;29;20053;-53
2021/01/31 06:06:40;;;;;;;2.50;1.10;;;22.00;53.50;;;;;;4843514;29;20086;-52
2021/01/31 06:09:30;;;;;;;1.23;0.90;;;22.00;53.50;;;;;;4844113;29;20042;-51
2021/01/31 06:12:11;;;;;;;1.48;0.90;;;22.00;53.50;;;;;;4843918;29;20045;-47
2021/01/31 06:14:40;;;;;;;0.88;0.65;;;22.00;53.40;;;;;;4843799;29;20044;-47
2021/01/31 06:17:23;;;;;;;1.20;1.05;;;22.00;53.40;;;;;;4844064;29;20411;-52
2021/01/31 06:19:56;;;;;;;1.17;1.05;;;22.00;53.50;;;;;;4844077;29;20492;-49
2021/01/31 06:22:56;;;;;;;1.00;0.88;;;22.00;53.50;;;;;;4843526;29;20064;-52
2021/01/31 06:25:28;;;;;;;1.30;0.90;;;22.00;53.40;;;;;;4825293;29;20061;-48
2021/01/31 06:28:19;;;;;;;2.50;0.80;;;22.00;53.50;;;;;;4825369;29;20481;-49
2021/01/31 06:31:00;;;;;;;1.30;0.93;;;21.90;53.50;;;;;;4843291;29;20042;-47
2021/01/31 06:33:26;;;;;;;1.35;1.00;;;21.90;53.60;;;;;;4843640;29;20041;-50
2021/01/31 06:36:18;;;;;;;1.13;0.95;;;21.90;53.50;;;;;;4843505;29;20087;-52
2021/01/31 06:39:10;;;;;;;1.33;0.95;;;21.90;53.60;;;;;;4843021;29;20057;-49
2021/01/31 06:42:12;;;;;;;1.10;1.00;;;21.90;53.60;;;;;;4843680;29;20041;-48
2021/01/31 06:44:44;;;;;;;1.17;0.90;;;21.90;53.40;;;;;;4843553;29;20049;-50
2021/01/31 06:47:24;;;;;;;0.80;0.80;;;21.90;53.40;;;;;;4843394;29;20492;-47
2021/01/31 06:50:08;;;;;;;1.35;0.90;;;21.90;53.40;;;;;;4843107;29;20894;-48
2021/01/31 06:52:41;;;;;;;0.80;0.80;;;21.90;53.60;;;;;;4843385;29;20037;-51
2021/01/31 06:55:48;;;;;;;0.80;0.80;;;21.80;53.40;;;;;;4842942;29;20053;-50
2021/01/31 06:58:28;;;;;;;1.00;0.90;;;21.90;53.50;;;;;;4827006;29;20057;-51
2021/01/31 07:01:08;;;;;;;1.55;0.90;;;21.90;53.40;;;;;;4828482;29;20041;-50
2021/01/31 07:04:03;;;;;;;0.80;0.80;;;21.80;53.30;;;;;;4842904;29;20034;-49
2021/01/31 07:07:01;;;;;;;1.23;0.95;;;21.80;53.30;;;;;;4842653;29;20052;-50
2021/01/31 07:10:09;;;;;;;1.25;0.93;;;21.80;53.20;;;;;;4842666;29;20476;-48
2021/01/31 07:13:01;;;;;;;1.83;0.73;;;21.80;53.30;;;;;;4827054;29;20138;-47
2021/01/31 07:15:40;;;;;;;0.80;0.80;;;21.80;53.30;;;;;;4859102;29;20075;-48
2021/01/31 07:18:11;;;;;;;0.88;0.80;;;21.80;53.30;;;;;;4858707;29;20079;-45
2021/01/31 07:20:44;;;;;;;0.73;0.70;;;21.80;53.20;;;;;;4842773;29;20515;-47
2021/01/31 07:23:26;;;;;;;0.60;0.60;;;21.70;53.10;;;;;;4843904;29;20029;-49
2021/01/31 07:25:59;;;;;;;0.80;0.80;;;21.70;53.10;;;;;;4859230;29;20041;-48
2021/01/31 07:28:41;;;;;;;2.30;0.90;;;21.80;53.10;;;;;;4859127;29;20038;-51
2021/01/31 07:31:38;;;;;;;1.00;0.88;;;21.70;53.10;;;;;;4859066;29;20048;-47
2021/01/31 07:34:11;;;;;;;0.93;0.77;;;21.70;53.10;;;;;;4843362;29;20543;-49
2021/01/31 07:36:42;;;;;;;0.70;0.70;;;21.70;53.10;;;;;;4858825;29;20037;-49
2021/01/31 07:39:25;;;;;;;1.52;0.88;;;21.70;53.00;;;;;;4858510;29;20146;-47
2021/01/31 07:41:54;;;;;;;1.77;0.80;;;21.70;53.00;;;;;;4858701;29;20029;-50
2021/01/31 07:44:24;;;;;;;0.80;0.80;;;21.70;52.90;;;;;;4858701;29;20090;-49
2021/01/31 07:46:54;;;;;;;0.70;0.70;;;21.70;53.00;;;;;;4858543;29;20128;-46
2021/01/31 07:49:20;;;;;;;0.70;0.70;;;21.70;53.00;;;;;;4858714;29;20033;-48
2021/01/31 07:51:49;;;;;;;2.25;1.00;;;21.70;53.00;;;;;;4855227;29;20056;-49
2021/01/31 07:54:28;;;;;;;0.90;0.80;;;21.60;52.90;;;;;;4842244;29;20037;-46
2021/01/31 07:56:56;;;;;;;0.90;0.90;;;21.60;52.90;;;;;;4842250;29;20041;-46
2021/01/31 07:59:37;;;;;;;1.67;0.70;;;21.60;52.90;;;;;;4841662;29;20515;-47
2021/01/31 08:02:07;;;;;;;0.80;0.80;;;21.60;52.90;;;;;;4841758;29;20401;-47
2021/01/31 08:04:33;;;;;;;2.00;0.80;;;21.60;52.80;;;;;;4842267;29;20030;-48
2021/01/31 08:07:01;;;;;;;2.70;0.90;;;21.60;52.90;;;;;;4842026;29;20045;-47
2021/01/31 08:09:27;;;;;;;1.15;0.77;;;21.60;52.90;;;;;;4841655;29;20511;-49
2021/01/31 08:12:05;;;;;;;0.70;0.70;;;21.60;52.90;;;;;;4841993;29;20041;-47
2021/01/31 08:15:08;;;;;;;1.00;0.80;;;21.60;52.90;;;;;;4842105;29;20033;-47
2021/01/31 08:17:53;;;;;;;0.63;0.63;;;21.60;52.90;;;;;;4841496;29;20045;-47
2021/01/31 08:20:28;;;;;;;1.10;0.90;;;21.60;52.80;;;;;;4841718;29;20090;-50
2021/01/31 08:22:56;;;;;;;0.88;0.75;;;21.50;52.80;;;;;;4827544;29;20098;-50
2021/01/31 08:25:31;;;;;;;0.70;0.70;;;21.50;52.90;;;;;;4840474;29;20494;-47
2021/01/31 08:28:16;;;;;;;0.80;0.80;;;21.50;52.80;;;;;;4834570;29;20034;-49
2021/01/31 08:31:03;;;;;;;1.70;0.90;;;21.50;52.90;;;;;;4841433;29;20086;-47
2021/01/31 08:33:40;;;;;;;0.88;0.70;;;21.50;52.80;;;;;;4842250;29;20034;-47
2021/01/31 08:36:08;;;;;;;2.20;0.63;;;21.50;52.90;;;;;;4837489;29;20042;-47
2021/01/31 08:38:37;;;;;;;1.40;0.80;;;21.50;52.80;;;;;;4839930;29;20058;-52
2021/01/31 08:41:04;;;;;;;0.70;0.63;;;21.40;52.80;;;;;;4837477;29;20034;-48
2021/01/31 08:43:37;;;;;;;0.52;0.50;;;21.50;52.80;;;;;;4844916;29;20564;-46
2021/01/31 08:46:13;;;;;;;1.00;0.80;;;21.40;52.80;;;;;;4837251;29;20041;-49
2021/01/31 08:48:40;;;;;;;0.90;0.82;;;21.40;52.80;;;;;;4839526;29;20038;-48
2021/01/31 08:51:12;;;;;;;1.15;0.90;;;21.40;52.80;;;;;;4837036;29;20030;-50
2021/01/31 08:53:38;;;;;;;1.15;1.05;;;21.40;52.70;;;;;;4838311;29;20057;-51
2021/01/31 08:56:15;;;;;;;1.48;0.73;;;21.40;52.70;;;;;;4842788;29;20034;-47
2021/01/31 08:58:41;;;;;;;1.30;0.80;;;21.40;52.70;;;;;;4843444;29;20034;-48
2021/01/31 09:01:07;;;;;;;1.85;1.23;;;21.40;52.70;;;;;;4844284;29;20050;-48
2021/01/31 09:03:34;;;;;;;1.15;0.80;;;21.40;52.70;;;;;;4839804;29;20577;-47
2021/01/31 09:06:01;;;;;;;0.77;0.77;;;21.40;52.70;;;;;;4845251;29;20056;-49
2021/01/31 09:08:27;;;;;;;0.65;0.65;;;21.40;52.70;;;;;;4844698;29;20117;-52
2021/01/31 09:10:54;;;;;;;0.80;0.80;;;21.40;52.70;;;;;;4845312;29;20041;-45
2021/01/31 09:13:31;;;;;;;0.73;0.73;;;21.40;52.70;;;;;;4844906;29;20070;-46
2021/01/31 09:16:26;;;;;;;1.00;0.90;;;21.40;52.60;;;;;;4844527;29;20034;-47
2021/01/31 09:19:20;;;;;;;1.98;0.80;;;21.40;52.60;;;;;;4843832;29;20078;-52
2021/01/31 09:21:47;;;;;;;0.95;0.80;;;21.30;52.60;;;;;;4844914;29;20061;-49
2021/01/31 09:24:16;;;;;;;0.88;0.80;;;21.30;52.60;;;;;;4844897;29;20030;-49
2021/01/31 09:26:55;;;;;;;0.70;0.70;;;21.30;53.20;;;;;;4844705;29;20034;-49
2021/01/31 09:29:30;;;;;;;0.70;0.70;;;21.30;52.60;;;;;;4843248;29;20595;-50
2021/01/31 09:32:15;;;;;;;0.90;0.80;;;21.30;52.60;;;;;;4844508;29;20034;-50
2021/01/31 09:34:41;;;;;;;0.60;0.60;;;21.30;52.60;;;;;;4834591;29;20033;-48
2021/01/31 09:37:10;;;;;;;1.02;0.63;;;21.30;52.60;;;;;;4832988;29;20100;-46
2021/01/31 09:39:38;;;;;;;0.80;0.80;;;21.30;52.60;;;;;;4843526;29;20038;-49
2021/01/31 09:42:06;;;;;;;0.63;0.63;;;21.20;53.10;;;;;;4842440;29;20033;-48
2021/01/31 09:44:35;;;;;;;0.85;0.85;;;21.20;52.60;;;;;;4834639;29;20060;-49
2021/01/31 09:47:06;;;;;;;1.00;0.90;;;21.20;52.60;;;;;;4836099;29;20030;-49
2021/01/31 09:49:33;;;;;;;0.82;0.82;;;21.20;52.60;;;;;;4835922;29;20034;-49
2021/01/31 09:52:09;;;;;;;0.70;0.70;;;21.20;52.60;;;;;;4840644;29;20403;-50
2021/01/31 09:54:36;;;;;;;1.23;1.00;;;21.20;52.60;;;;;;4832106;29;20034;-50
2021/01/31 09:57:06;;;;;;;1.00;0.85;;;21.20;52.60;;;;;;4843235;29;20036;-48
2021/01/31 09:59:37;;;;;;;1.25;1.00;;;21.20;52.60;;;;;;4836018;29;20042;-46
2021/01/31 10:02:15;;;;;;;0.80;0.80;;;21.20;52.60;;;;;;4839593;29;20058;-51
2021/01/31 10:04:43;;;;;;;1.00;0.90;;;21.20;52.60;;;;;;4839626;29;20033;-48
2021/01/31 10:07:13;;;;;;;1.23;0.80;;;21.20;52.60;;;;;;4840046;29;20520;-48
2021/01/31 10:09:42;;;;;;;0.80;0.80;;;21.20;52.60;;;;;;4834486;29;20385;-48
2021/01/31 10:12:26;;;;;;;0.80;0.80;;;21.20;52.60;;;;;;4842667;29;20057;-51
2021/01/31 10:15:06;;;;;;;1.10;1.00;;;21.20;52.60;;;;;;4841783;29;20034;-51
2021/01/31 10:17:42;;;;;;;0.70;0.70;;;21.20;52.60;;;;;;4842859;29;20396;-52
2021/01/31 10:20:28;;;;;;;;;;;21.20;52.70;;;;;;4843622;29;20030;-51
2021/01/31 10:23:13;;;;;;;0.85;0.85;;;21.20;52.60;;;;;;4842751;29;19940;-48
2021/01/31 10:25:41;;;;;;;0.97;0.80;;;21.10;52.60;;;;;;4842889;29;20104;-53
2021/01/31 10:28:11;;;;;;;0.80;0.80;;;21.10;52.70;;;;;;4842365;29;20107;-52
2021/01/31 10:30:49;;;;;;;1.73;0.90;;;21.10;52.80;;;;;;4842642;29;20045;-51
2021/01/31 10:33:40;;;;;;;0.73;0.73;;;21.10;52.70;;;;;;4842509;29;20408;-49
2021/01/31 10:36:27;;;;;;;0.80;0.80;;;21.10;52.80;;;;;;4842379;29;20045;-49
2021/01/31 10:39:08;;;;;;;1.02;0.90;;;21.10;52.80;;;;;;4832490;29;20042;-51
2021/01/31 10:41:34;;;;;;;2.10;0.77;;;21.10;52.90;;;;;;4834923;29;20101;-47
2021/01/31 10:44:04;;;;;;;1.05;0.80;;;21.10;52.90;;;;;;4842556;29;20403;-49
2021/01/31 10:46:33;;;;;;;1.15;1.02;;;21.10;52.80;;;;;;4842098;29;20578;-49
2021/01/31 10:48:59;;;;;;;0.77;0.77;;;21.10;52.90;;;;;;4842126;29;20125;-50
2021/01/31 10:51:29;;;;;;;2.92;0.75;;;21.10;52.80;;;;;;4842320;29;20108;-51
2021/01/31 10:53:55;;;;;;;2.08;1.23;;;21.10;52.90;;;;;;4841980;29;20034;-49
2021/01/31 10:56:21;;;;;;;2.15;0.73;;;21.20;52.90;;;;;;4849999;29;20061;-50
2021/01/31 10:58:47;;;;;;;1.20;0.90;;;21.10;52.90;;;;;;4841898;29;20030;-52
2021/01/31 11:01:13;;;;;;;2.90;1.17;;;21.20;52.80;;;;;;4841834;29;20046;-48
2021/01/31 11:03:39;;;;;;;2.40;1.00;;;21.10;52.80;;;;;;4841930;29;20174;-46
2021/01/31 11:06:05;;;;;;;1.10;0.90;;;21.10;52.80;;;;;;4842069;29;20026;-49
2021/01/31 11:08:31;;;;;;;2.15;1.00;;;21.10;52.80;;;;;;4842013;29;20037;-47
2021/01/31 11:10:58;;;;;;;3.38;1.48;;;21.20;52.80;;;;;;4841673;29;20445;-48
2021/01/31 11:13:25;;;;;;;3.30;1.40;;;21.10;52.80;;;;;;4838416;29;20042;-49
2021/01/31 11:15:52;;;;;;;2.65;1.50;;;21.20;52.90;;;;;;4841631;29;20511;-47
2021/01/31 11:18:18;;;;;;;4.32;1.52;;;21.10;52.90;;;;;;4840510;29;20034;-47
2021/01/31 11:20:44;;;;;;;5.82;1.30;;;21.20;53.00;;;;;;4827193;29;20026;-47
2021/01/31 11:23:10;;;;;;;3.58;1.40;;;21.20;53.00;;;;;;4827476;29;20457;-52
2021/01/31 11:25:36;;;;;;;5.28;1.80;;;21.20;53.00;;;;;;4827346;29;20105;-50
2021/01/31 11:28:02;;;;;;;6.80;1.58;;;21.20;53.10;;;;;;4836054;29;20054;-51
2021/01/31 11:30:29;;;;;;;4.13;1.35;;;21.20;53.10;;;;;;4826689;29;20026;-48
2021/01/31 11:32:56;;;;;;;4.75;1.40;;;21.20;53.10;;;;;;4825562;29;20109;-49
2021/01/31 11:35:22;;;;;;;3.78;1.58;;;21.20;53.10;;;;;;4841641;29;20120;-51
2021/01/31 11:37:48;;;;;;;3.85;1.73;;;21.10;53.10;;;;;;4842498;29;20395;-51
2021/01/31 11:40:14;;;;;;;5.63;1.70;;;21.10;53.10;;;;;;4842366;29;20544;-49
2021/01/31 11:42:40;;;;;;;3.03;1.25;;;21.10;53.10;;;;;;4842400;29;20034;-49
2021/01/31 11:45:08;;;;;;;3.50;1.60;;;21.10;53.10;;;;;;4842496;29;20029;-49
2021/01/31 11:47:37;;;;;;;3.40;1.30;;;21.10;53.00;;;;;;4842214;29;20124;-50
2021/01/31 11:50:05;;;;;;;2.88;1.38;;;21.20;53.10;;;;;;4842071;29;20063;-51
2021/01/31 11:52:30;;;;;;;3.05;1.52;;;21.10;53.00;;;;;;4842118;29;20030;-51
2021/01/31 11:54:56;;;;;;;3.38;1.50;;;21.20;53.00;;;;;;4841801;29;20033;-48
2021/01/31 11:57:22;;;;;;;4.50;1.80;;;21.10;53.00;;;;;;4842394;29;20033;-49
2021/01/31 11:59:48;;;;;;;2.60;1.25;;;21.10;53.00;;;;;;4841700;29;20158;-49
2021/01/31 12:02:13;;;;;;;4.10;1.52;;;21.10;53.00;;;;;;4842081;29;20357;-51
2021/01/31 12:04:39;;;;;;;3.90;1.20;;;21.10;53.00;;;;;;4841267;29;20030;-49
2021/01/31 12:07:06;;;;;;;3.38;1.73;;;21.10;53.00;;;;;;4841974;29;20034;-51
2021/01/31 12:09:32;;;;;;;2.78;1.30;;;21.10;53.00;;;;;;4841625;29;20511;-48
2021/01/31 12:11:58;;;;;;;1.65;1.20;;;21.10;52.90;;;;;;4842011;29;20034;-50
2021/01/31 12:14:25;;;;;;;2.65;1.10;;;21.10;53.50;;;;;;4841973;29;20504;-51
2021/01/31 12:16:51;;;;;;;4.00;1.33;;;21.10;53.50;;;;;;4841704;29;20125;-50
2021/01/31 12:19:19;;;;;;;2.92;1.38;;;21.10;52.90;;;;;;4841374;29;20034;-46
2021/01/31 12:21:45;;;;;;;2.50;1.40;;;21.10;52.90;;;;;;4841894;29;20034;-50
2021/01/31 12:24:10;;;;;;;2.35;1.15;;;21.10;52.90;;;;;;4841885;29;20033;-49
2021/01/31 12:26:36;;;;;;;5.05;1.60;;;21.10;52.90;;;;;;4842088;29;20041;-51
2021/01/31 12:29:03;;;;;;;3.50;1.27;;;21.10;52.90;;;;;;4842161;29;20040;-50
2021/01/31 12:31:29;;;;;;;5.47;1.50;;;21.10;52.90;;;;;;4841902;29;20034;-50
2021/01/31 12:33:55;;;;;;;4.30;1.60;;;21.10;53.00;;;;;;4841653;29;20061;-50
2021/01/31 12:36:20;;;;;;;4.63;1.65;;;21.10;53.00;;;;;;4840770;29;20038;-48
2021/01/31 12:38:47;;;;;;;4.55;2.30;;;21.10;53.00;;;;;;4841310;29;20033;-48
2021/01/31 12:41:13;;;;;;;7.45;2.75;;;21.10;53.00;;;;;;4832253;29;20033;-49
2021/01/31 12:43:39;;;;;;;4.50;2.22;;;21.10;53.00;;;;;;4840014;29;20292;-47
2021/01/31 12:46:04;;;;;;;7.38;3.15;;;21.10;53.10;;;;;;4840418;29;20112;-52
2021/01/31 12:48:30;;;;;;;9.43;4.05;;;21.10;53.10;;;;;;4836741;29;20154;-50
2021/01/31 12:50:56;;;;;;;10.55;4.25;;;21.10;53.20;;;;;;4840665;29;20033;-48
2021/01/31 12:53:22;;;;;;;11.50;4.80;;;21.10;53.20;;;;;;4841050;29;20069;-47
2021/01/31 12:55:47;;;;;;;16.88;7.25;;;21.10;53.30;;;;;;4835292;29;20035;-49
2021/01/31 12:58:13;;;;;;;15.98;7.10;;;21.10;53.60;;;;;;4830420;29;20174;-51
2021/01/31 13:00:39;;;;;;;14.73;6.00;;;21.10;53.60;;;;;;4841334;29;20046;-50
2021/01/31 13:03:05;;;;;;;18.35;7.55;;;21.10;54.20;;;;;;4841430;29;20037;-48
2021/01/31 13:05:31;;;;;;;17.17;6.28;;;21.10;54.20;;;;;;4841635;29;20042;-52
2021/01/31 13:07:58;;;;;;;14.80;7.25;;;21.10;53.70;;;;;;4841039;29;20113;-52
2021/01/31 13:10:24;;;;;;;13.75;5.30;;;21.10;53.70;;;;;;4841539;29;20038;-51
2021/01/31 13:12:50;;;;;;;12.38;5.82;;;21.10;53.70;;;;;;4841263;29;20105;-50
2021/01/31 13:15:17;;;;;;;11.98;5.25;;;21.10;53.70;;;;;;4841358;29;20116;-52
2021/01/31 13:17:43;;;;;;;11.45;5.10;;;21.10;53.70;;;;;;4842736;29;20545;-50
2021/01/31 13:20:10;;;;;;;12.10;4.72;;;21.10;53.60;;;;;;4844967;29;20026;-50
2021/01/31 13:22:36;;;;;;;9.93;5.07;;;21.10;53.60;;;;;;4844804;29;20061;-53
2021/01/31 13:25:04;;;;;;;11.15;4.38;;;21.10;53.70;;;;;;4844940;29;20030;-52
2021/01/31 13:27:30;;;;;;;9.98;4.70;;;21.10;53.70;;;;;;4844972;29;20546;-50
2021/01/31 13:29:56;;;;;;;12.55;4.65;;;21.10;53.70;;;;;;4844481;29;20361;-51
2021/01/31 13:32:22;;;;;;;17.13;6.00;;;21.10;53.60;;;;;;4844609;29;20033;-50
2021/01/31 13:34:47;;;;;;;10.57;4.18;;;21.10;53.60;;;;;;4844285;29;20026;-52
2021/01/31 13:37:14;;;;;;;14.15;5.18;;;21.10;53.60;;;;;;4844260;29;20038;-48
2021/01/31 13:39:39;;;;;;;11.88;4.90;;;21.00;53.60;;;;;;4844094;29;20042;-49
2021/01/31 13:42:05;;;;;;;11.88;4.30;;;21.10;53.70;;;;;;4844368;29;20112;-49
2021/01/31 13:44:31;;;;;;;8.90;3.60;;;21.10;53.70;;;;;;4844038;29;20081;-51
2021/01/31 13:46:57;;;;;;;11.10;3.85;;;21.10;53.60;;;;;;4844383;29;20034;-51
2021/01/31 13:49:23;;;;;;;8.38;3.90;;;21.10;53.60;;;;;;4844433;29;20093;-51
2021/01/31 13:51:49;;;;;;;11.55;3.67;;;21.10;53.60;;;;;;4844055;29;20041;-49
2021/01/31 13:54:15;;;;;;;7.82;3.30;;;21.10;53.50;;;;;;4843741;29;20030;-49
2021/01/31 13:56:41;;;;;;;9.70;3.40;;;21.10;53.60;;;;;;4843843;29;20126;-49
2021/01/31 13:59:08;;;;;;;10.60;3.65;;;21.10;53.50;;;;;;4843213;29;20059;-52
2021/01/31 14:01:33;;;;;;;7.57;3.13;;;21.10;53.50;;;;;;4844276;29;20537;-51
2021/01/31 14:03:59;;;;;;;11.10;3.60;;;21.10;53.50;;;;;;4843908;29;20075;-47
2021/01/31 14:06:25;;;;;;;9.65;3.03;;;21.00;53.40;;;;;;4843902;29;20054;-51
2021/01/31 14:08:51;;;;;;;8.02;3.33;;;21.10;53.50;;;;;;4843834;29;20031;-49
2021/01/31 14:11:17;;;;;;;8.05;2.67;;;21.10;53.50;;;;;;4842816;29;20044;-51
2021/01/31 14:13:43;;;;;;;8.45;3.50;;;21.10;53.50;;;;;;4835071;29;20125;-48
2021/01/31 14:16:09;;;;;;;5.30;2.67;;;21.10;53.50;;;;;;4842612;29;20121;-47
2021/01/31 14:18:35;;;;;;;6.88;2.78;;;21.10;53.60;;;;;;4838582;29;20167;-49
2021/01/31 14:21:00;;;;;;;5.43;2.95;;;21.10;53.60;;;;;;4838551;29;20034;-47
2021/01/31 14:23:26;;;;;;;10.38;3.38;;;21.10;53.60;;;;;;4833549;29;20044;-49
2021/01/31 14:25:52;;;;;;;11.48;3.17;;;21.00;53.80;;;;;;4841218;29;20113;-51
2021/01/31 14:28:18;;;;;;;6.47;3.10;;;21.00;53.90;;;;;;4842372;29;20061;-49
2021/01/31 14:30:44;;;;;;;7.40;2.63;;;21.00;54.00;;;;;;4842833;29;20046;-49
2021/01/31 14:33:10;;;;;;;5.38;2.60;;;21.00;54.00;;;;;;4842876;29;20551;-49
2021/01/31 14:35:36;;;;;;;4.93;2.30;;;21.00;54.00;;;;;;4842529;29;20117;-49
2021/01/31 14:38:02;;;;;;;5.53;2.40;;;21.00;54.00;;;;;;4840330;29;20037;-50
2021/01/31 14:40:30;;;;;;;10.82;2.85;;;21.00;54.00;;;;;;4840776;29;20065;-50
2021/01/31 14:42:56;;;;;;;4.88;2.50;;;21.00;54.00;;;;;;4842242;29;20034;-48
2021/01/31 14:45:27;;;;;;;4.40;2.40;;;21.00;53.90;;;;;;4854573;29;20514;-50
2021/01/31 14:47:53;;;;;;;5.97;2.50;;;21.00;54.00;;;;;;4841909;29;20030;-44
2021/01/31 14:50:19;;;;;;;6.60;2.47;;;21.00;54.00;;;;;;4841484;29;20053;-47
2021/01/31 14:52:46;;;;;;;6.30;2.85;;;21.00;53.90;;;;;;4842120;29;20030;-47
2021/01/31 14:55:16;;;;;;;5.20;2.55;;;21.00;54.00;;;;;;4841958;29;20034;-47
2021/01/31 14:57:42;;;;;;;5.68;2.45;;;21.00;54.00;;;;;;4827005;29;20041;-47
2021/01/31 15:00:14;;;;;;;4.93;2.40;;;21.00;54.00;;;;;;4841148;29;20038;-46
2021/01/31 15:02:39;;;;;;;4.57;2.42;;;21.00;53.90;;;;;;4841264;29;20520;-45
2021/01/31 15:05:06;;;;;;;3.67;2.13;;;21.00;53.90;;;;;;4841751;29;20079;-47
2021/01/31 15:07:33;;;;;;;5.63;2.85;;;21.00;53.90;;;;;;4841714;29;20034;-44
2021/01/31 15:10:00;;;;;;;3.20;2.20;;;21.00;53.90;;;;;;4840346;29;20045;-46
2021/01/31 15:12:26;;;;;;;3.97;2.03;;;21.00;53.90;;;;;;4841805;29;20033;-45
2021/01/31 15:14:52;;;;;;;7.90;1.88;;;20.90;53.90;;;;;;4840412;29;20030;-45
2021/01/31 15:17:18;;;;;;;4.22;1.85;;;20.90;54.00;;;;;;4839090;29;20481;-47
2021/01/31 15:19:45;;;;;;;3.22;1.80;;;20.90;53.90;;;;;;4841463;29;20038;-44
2021/01/31 15:22:12;;;;;;;4.47;2.25;;;20.90;53.90;;;;;;4841136;29;20045;-50
2021/01/31 15:24:37;;;;;;;5.05;2.05;;;20.90;54.00;;;;;;4841291;29;20377;-48
2021/01/31 15:27:04;;;;;;;4.97;2.25;;;20.90;53.90;;;;;;4841636;29;20165;-46
2021/01/31 15:29:29;;;;;;;3.35;1.70;;;20.90;54.00;;;;;;4841019;29;20117;-46
2021/01/31 15:31:55;;;;;;;5.20;1.70;;;20.90;54.00;;;;;;4840921;29;20162;-47
2021/01/31 15:34:21;;;;;;;4.97;1.83;;;20.90;54.00;;;;;;4840827;29;20034;-47
2021/01/31 15:36:47;;;;;;;5.45;2.17;;;20.90;54.00;;;;;;4841246;29;20518;-44
2021/01/31 15:39:13;;;;;;;3.88;1.80;;;20.90;54.00;;;;;;4840781;29;20037;-48
2021/01/31 15:41:39;;;;;;;4.00;2.10;;;20.90;54.10;;;;;;4840848;29;20038;-48
2021/01/31 15:44:06;;;;;;;4.28;2.00;;;20.90;54.00;;;;;;4840586;29;20049;-49
2021/01/31 15:46:32;;;;;;;3.55;2.00;;;20.90;54.00;;;;;;4841078;29;20030;-49
2021/01/31 15:48:58;;;;;;;3.08;1.85;;;20.90;54.00;;;;;;4840952;29;20034;-50
2021/01/31 15:51:23;;;;;;;4.82;1.83;;;20.90;54.10;;;;;;4841121;29;20053;-49
2021/01/31 15:53:50;;;;;;;4.05;2.00;;;20.90;54.10;;;;;;4840450;29;20041;-43
2021/01/31 15:56:16;;;;;;;5.40;1.83;;;20.80;54.10;;;;;;4840904;29;20530;-46
2021/01/31 15:58:42;;;;;;;3.90;2.20;;;20.90;54.10;;;;;;4840444;29;20025;-49
2021/01/31 16:01:09;;;;;;;3.85;1.92;;;20.80;54.10;;;;;;4840400;29;20060;-49
2021/01/31 16:03:35;;;;;;;3.50;1.90;;;20.80;54.10;;;;;;4841015;29;20037;-49
2021/01/31 16:06:02;;;;;;;4.80;1.95;;;20.80;54.10;;;;;;4840295;29;20044;-47
2021/01/31 16:08:27;;;;;;;3.92;1.60;;;20.80;54.10;;;;;;4840924;29;20026;-46
2021/01/31 16:10:56;;;;;;;4.97;1.67;;;20.80;54.10;;;;;;4840937;29;20037;-46
2021/01/31 16:13:23;;;;;;;3.17;1.73;;;20.80;54.10;;;;;;4840490;29;20033;-47
2021/01/31 16:15:49;;;;;;;3.78;1.88;;;20.80;54.20;;;;;;4840114;29;20042;-45
2021/01/31 16:18:16;;;;;;;3.67;1.63;;;20.80;54.20;;;;;;4840336;29;20057;-50
2021/01/31 16:20:42;;;;;;;4.35;1.77;;;20.80;54.30;;;;;;4840895;29;20034;-49
2021/01/31 16:23:08;;;;;;;4.65;1.90;;;20.80;54.20;;;;;;4841165;29;20027;-48
2021/01/31 16:25:34;;;;;;;3.47;1.52;;;20.80;54.30;;;;;;4839222;29;20101;-48
2021/01/31 16:28:01;;;;;;;3.47;2.10;;;20.80;54.30;;;;;;4840885;29;20061;-44
2021/01/31 16:30:30;;;;;;;3.72;1.70;;;20.80;54.30;;;;;;4840679;29;20038;-48
2021/01/31 16:32:57;;;;;;;3.70;1.73;;;20.80;54.30;;;;;;4840880;29;20045;-49
2021/01/31 16:35:24;;;;;;;4.28;1.95;;;20.80;54.30;;;;;;4840472;29;20033;-45
2021/01/31 16:37:50;;;;;;;2.78;1.73;;;20.80;54.30;;;;;;4840454;29;20389;-46
2021/01/31 16:40:18;;;;;;;4.18;1.73;;;20.80;54.30;;;;;;4840953;29;20445;-49
2021/01/31 16:42:44;;;;;;;4.43;2.20;;;20.80;54.30;;;;;;4822831;29;20029;-49
2021/01/31 16:45:14;;;;;;;3.45;2.20;;;20.80;54.30;;;;;;4840337;29;20034;-44
2021/01/31 16:47:39;;;;;;;6.13;2.10;;;20.80;54.40;;;;;;4841216;29;20045;-47
2021/01/31 16:50:07;;;;;;;6.68;2.15;;;20.80;54.50;;;;;;4840578;29;20030;-48
2021/01/31 16:52:32;;;;;;;5.30;1.77;;;20.80;54.50;;;;;;4843208;29;20086;-46
2021/01/31 16:54:58;;;;;;;6.05;2.00;;;20.80;55.00;;;;;;4844175;29;20038;-49
2021/01/31 16:57:24;;;;;;;4.18;1.55;;;20.80;54.40;;;;;;4844103;29;20484;-49
2021/01/31 16:59:50;;;;;;;7.03;1.75;;;20.80;54.50;;;;;;4843714;29;20495;-46
2021/01/31 17:02:15;;;;;;;5.03;1.73;;;20.80;54.50;;;;;;4844105;29;20694;-49
2021/01/31 17:04:41;;;;;;;3.55;1.58;;;20.80;54.50;;;;;;4844002;29;20510;-49
2021/01/31 17:07:07;;;;;;;3.20;1.67;;;20.80;54.60;;;;;;4844282;29;20049;-49
2021/01/31 17:09:33;;;;;;;5.53;1.80;;;20.80;54.60;;;;;;4843805;29;20093;-48
2021/01/31 17:11:59;;;;;;;5.30;1.73;;;20.80;54.60;;;;;;4843890;29;20038;-47
2021/01/31 17:14:25;;;;;;;5.55;1.95;;;20.80;54.60;;;;;;4843394;29;20476;-52
2021/01/31 17:16:50;;;;;;;7.22;2.75;;;20.80;54.60;;;;;;4843679;29;20116;-48
2021/01/31 17:19:17;;;;;;;3.13;2.20;;;20.80;54.70;;;;;;4843547;29;20386;-47
2021/01/31 17:21:43;;;;;;;7.47;2.28;;;20.80;54.60;;;;;;4834629;29;20078;-44
2021/01/31 17:24:09;;;;;;;7.90;1.75;;;20.80;54.40;;;;;;4831796;29;20457;-45
2021/01/31 17:26:35;;;;;;;4.70;2.00;;;20.80;54.40;;;;;;4842801;29;20037;-47
2021/01/31 17:29:01;;;;;;;3.65;2.00;;;20.80;54.30;;;;;;4835501;29;20047;-43
2021/01/31 17:31:27;;;;;;;6.57;2.08;;;20.80;54.40;;;;;;4842762;29;20111;-45
2021/01/31 17:33:52;;;;;;;4.60;1.70;;;20.80;54.60;;;;;;4835921;29;20496;-46
2021/01/31 17:36:18;;;;;;;7.85;3.53;;;20.80;54.50;;;;;;4834589;29;20038;-46
2021/01/31 17:38:44;;;;;;;7.65;5.47;;;20.80;54.40;;;;;;4841888;29;20081;-44
2021/01/31 17:41:10;;;;;;;7.30;3.40;;;20.80;54.30;;;;;;4842850;29;20038;-45
2021/01/31 17:43:36;;;;;;;6.57;2.85;;;20.80;54.30;;;;;;4837858;29;20170;-46
2021/01/31 17:46:02;;;;;;;9.35;2.83;;;20.80;54.30;;;;;;4838257;29;20034;-46
2021/01/31 17:48:28;;;;;;;7.68;2.60;;;20.80;54.20;;;;;;4839353;29;20034;-46
2021/01/31 17:50:54;;;;;;;6.20;2.65;;;20.70;54.20;;;;;;4835595;29;20041;-48
2021/01/31 17:53:20;;;;;;;4.70;2.88;;;20.80;54.10;;;;;;4838669;29;20042;-45
2021/01/31 17:55:46;;;;;;;2.58;1.60;;;20.80;54.00;;;;;;4836931;29;20057;-46
2021/01/31 17:58:12;;;;;;;4.72;2.38;;;20.80;54.00;;;;;;4825599;29;20579;-46
2021/01/31 18:00:38;;;;;;;3.03;2.20;;;20.80;53.90;;;;;;4836269;29;20042;-45